KTTN/TTN METAR and TAF weather

Enter ICAO airport designator
Station Type Date Time Source
KTTN METAR 2021/02/28 02:53 UTC NOAA

KTTN 280253Z 25003KT 10SM CLR 05/03 A3020 RMK AO2 SLP223 T00500028 51017


Station Type Date Time Source
KTTN Decoded METAR 2021/02/28 02:53 UTC NOAA

TRENTON MERCER COUNTY AIRPORT , NJ, United States (KTTN) 40-17N 074-49W 59M
Feb 27, 2021 - 09:53 PM EST / 2021.02.28 0253 UTC
Wind: from the WSW (250 degrees) at 3 MPH (3 KT):0
Visibility: 10 mile(s):0
Sky conditions: clear
Temperature: 41.0 F (5.0 C)
Dew Point: 37.0 F (2.8 C)
Relative Humidity: 85%
Pressure (altimeter): 30.2 in. Hg (1022 hPa)
Pressure tendency: 0.05 inches (1.7 hPa) higher than three hours ago
ob: KTTN 280253Z 25003KT 10SM CLR 05/03 A3020 RMK AO2 SLP223 T00500028 51017
cycle: 3

Station Type Date Time Source
KTTN TAF 2021/02/27 22:48 UTC NOAA

TAF
AMD KTTN 272146Z 2722/2818 28006KT P6SM FEW035
FM280300 VRB03KT P6SM BKN200
FM281000 VRB03KT P6SM SCT035 BKN080
FM281500 07004KT 4SM -RA BR SCT012 OVC025
FM281700 09006KT 2SM RA BR OVC004

Example: see airport list